sensor_id;sensor_type;location;lat;lon;timestamp;temperature;humidity
64937;SHT30;51452;47.698;19.050;2023-05-29T00:00:11;17.71;61.20
64937;SHT30;51452;47.698;19.050;2023-05-29T00:02:38;17.75;61.08
64937;SHT30;51452;47.698;19.050;2023-05-29T00:05:04;17.75;61.36
64937;SHT30;51452;47.698;19.050;2023-05-29T00:07:31;17.68;59.29
64937;SHT30;51452;47.698;19.050;2023-05-29T00:09:57;17.54;58.56
64937;SHT30;51452;47.698;19.050;2023-05-29T00:12:23;17.52;58.29
64937;SHT30;51452;47.698;19.050;2023-05-29T00:14:49;17.37;58.88
64937;SHT30;51452;47.698;19.050;2023-05-29T00:17:15;17.25;59.24
64937;SHT30;51452;47.698;19.050;2023-05-29T00:19:42;17.21;59.48
64937;SHT30;51452;47.698;19.050;2023-05-29T00:22:07;17.24;60.14
64937;SHT30;51452;47.698;19.050;2023-05-29T00:24:32;17.28;59.98
64937;SHT30;51452;47.698;19.050;2023-05-29T00:26:58;17.45;59.66
64937;SHT30;51452;47.698;19.050;2023-05-29T00:29:23;17.61;60.33
64937;SHT30;51452;47.698;19.050;2023-05-29T00:31:49;17.71;60.27
64937;SHT30;51452;47.698;19.050;2023-05-29T00:34:14;17.64;61.25
64937;SHT30;51452;47.698;19.050;2023-05-29T00:36:39;17.59;62.48
64937;SHT30;51452;47.698;19.050;2023-05-29T00:39:05;17.49;63.94
64937;SHT30;51452;47.698;19.050;2023-05-29T00:41:30;17.49;63.45
64937;SHT30;51452;47.698;19.050;2023-05-29T00:43:55;17.39;63.13
64937;SHT30;51452;47.698;19.050;2023-05-29T00:46:21;17.27;63.11
64937;SHT30;51452;47.698;19.050;2023-05-29T00:48:47;17.18;63.40
64937;SHT30;51452;47.698;19.050;2023-05-29T00:51:13;17.08;64.03
64937;SHT30;51452;47.698;19.050;2023-05-29T00:53:42;17.04;64.14
64937;SHT30;51452;47.698;19.050;2023-05-29T00:56:09;16.96;64.33
64937;SHT30;51452;47.698;19.050;2023-05-29T00:58:35;16.97;64.11
64937;SHT30;51452;47.698;19.050;2023-05-29T01:01:02;16.96;64.67
64937;SHT30;51452;47.698;19.050;2023-05-29T01:03:28;16.94;65.02
64937;SHT30;51452;47.698;19.050;2023-05-29T01:05:54;16.99;64.50
64937;SHT30;51452;47.698;19.050;2023-05-29T01:08:19;16.91;64.62
64937;SHT30;51452;47.698;19.050;2023-05-29T01:10:45;16.83;65.42
64937;SHT30;51452;47.698;19.050;2023-05-29T01:13:19;16.83;64.11
64937;SHT30;51452;47.698;19.050;2023-05-29T01:15:58;16.83;63.62
64937;SHT30;51452;47.698;19.050;2023-05-29T01:18:46;16.84;63.31
64937;SHT30;51452;47.698;19.050;2023-05-29T01:21:26;16.80;63.18
64937;SHT30;51452;47.698;19.050;2023-05-29T01:24:02;16.86;63.41
64937;SHT30;51452;47.698;19.050;2023-05-29T01:29:10;16.90;62.85
64937;SHT30;51452;47.698;19.050;2023-05-29T01:31:39;16.97;62.39
64937;SHT30;51452;47.698;19.050;2023-05-29T01:34:05;17.06;60.99
64937;SHT30;51452;47.698;19.050;2023-05-29T01:36:30;17.14;61.38
64937;SHT30;51452;47.698;19.050;2023-05-29T01:38:58;17.18;61.00
64937;SHT30;51452;47.698;19.050;2023-05-29T01:41:24;17.23;60.96
64937;SHT30;51452;47.698;19.050;2023-05-29T01:43:51;17.27;60.76
64937;SHT30;51452;47.698;19.050;2023-05-29T01:46:18;17.31;60.30
64937;SHT30;51452;47.698;19.050;2023-05-29T01:48:44;17.32;60.92
64937;SHT30;51452;47.698;19.050;2023-05-29T01:51:11;17.37;61.13
64937;SHT30;51452;47.698;19.050;2023-05-29T01:53:37;17.32;61.31
64937;SHT30;51452;47.698;19.050;2023-05-29T01:56:03;17.30;61.63
64937;SHT30;51452;47.698;19.050;2023-05-29T01:58:30;17.25;61.77
64937;SHT30;51452;47.698;19.050;2023-05-29T02:00:57;17.18;61.92
64937;SHT30;51452;47.698;19.050;2023-05-29T02:03:23;17.17;61.86
64937;SHT30;51452;47.698;19.050;2023-05-29T02:05:49;17.00;62.94
64937;SHT30;51452;47.698;19.050;2023-05-29T02:08:14;17.02;63.09
64937;SHT30;51452;47.698;19.050;2023-05-29T02:10:40;16.91;63.37
64937;SHT30;51452;47.698;19.050;2023-05-29T02:13:05;16.90;63.43
64937;SHT30;51452;47.698;19.050;2023-05-29T02:15:31;16.87;63.42
64937;SHT30;51452;47.698;19.050;2023-05-29T02:17:56;16.88;63.18
64937;SHT30;51452;47.698;19.050;2023-05-29T02:20:23;16.88;63.67
64937;SHT30;51452;47.698;19.050;2023-05-29T02:22:48;16.94;64.09
64937;SHT30;51452;47.698;19.050;2023-05-29T02:25:14;16.96;64.34
64937;SHT30;51452;47.698;19.050;2023-05-29T02:27:39;16.96;63.98
64937;SHT30;51452;47.698;19.050;2023-05-29T02:30:06;16.94;64.39
64937;SHT30;51452;47.698;19.050;2023-05-29T02:32:31;16.97;64.39
64937;SHT30;51452;47.698;19.050;2023-05-29T02:34:57;16.94;64.28
64937;SHT30;51452;47.698;19.050;2023-05-29T02:37:22;16.96;64.27
64937;SHT30;51452;47.698;19.050;2023-05-29T02:39:50;16.91;64.58
64937;SHT30;51452;47.698;19.050;2023-05-29T02:42:16;16.79;66.20
64937;SHT30;51452;47.698;19.050;2023-05-29T02:44:41;16.66;66.30
64937;SHT30;51452;47.698;19.050;2023-05-29T02:47:06;16.62;66.19
64937;SHT30;51452;47.698;19.050;2023-05-29T02:49:32;16.55;65.90
64937;SHT30;51452;47.698;19.050;2023-05-29T02:51:57;16.52;66.75
64937;SHT30;51452;47.698;19.050;2023-05-29T02:54:23;16.51;66.39
64937;SHT30;51452;47.698;19.050;2023-05-29T02:56:49;16.46;66.19
64937;SHT30;51452;47.698;19.050;2023-05-29T02:59:15;16.44;66.01
64937;SHT30;51452;47.698;19.050;2023-05-29T03:01:41;16.45;66.41
64937;SHT30;51452;47.698;19.050;2023-05-29T03:04:06;16.36;66.53
64937;SHT30;51452;47.698;19.050;2023-05-29T03:06:31;16.44;66.54
64937;SHT30;51452;47.698;19.050;2023-05-29T03:08:57;16.44;66.45
64937;SHT30;51452;47.698;19.050;2023-05-29T03:11:24;16.48;67.22
64937;SHT30;51452;47.698;19.050;2023-05-29T03:13:50;16.45;67.43
64937;SHT30;51452;47.698;19.050;2023-05-29T03:16:15;16.48;67.10
64937;SHT30;51452;47.698;19.050;2023-05-29T03:18:41;16.45;64.79
64937;SHT30;51452;47.698;19.050;2023-05-29T03:21:07;16.51;66.60
64937;SHT30;51452;47.698;19.050;2023-05-29T03:23:32;16.51;66.56
64937;SHT30;51452;47.698;19.050;2023-05-29T03:25:58;16.53;66.57
64937;SHT30;51452;47.698;19.050;2023-05-29T03:28:23;16.56;66.91
64937;SHT30;51452;47.698;19.050;2023-05-29T03:30:49;16.59;66.41
64937;SHT30;51452;47.698;19.050;2023-05-29T03:33:14;16.66;66.69
64937;SHT30;51452;47.698;19.050;2023-05-29T03:35:40;16.67;67.10
64937;SHT30;51452;47.698;19.050;2023-05-29T03:38:05;16.72;67.35
64937;SHT30;51452;47.698;19.050;2023-05-29T03:40:30;16.73;67.36
64937;SHT30;51452;47.698;19.050;2023-05-29T03:42:56;16.75;67.32
64937;SHT30;51452;47.698;19.050;2023-05-29T03:45:21;16.79;67.39
64937;SHT30;51452;47.698;19.050;2023-05-29T03:47:46;16.83;67.25
64937;SHT30;51452;47.698;19.050;2023-05-29T03:50:12;16.86;67.53
64937;SHT30;51452;47.698;19.050;2023-05-29T03:52:41;16.93;67.42
64937;SHT30;51452;47.698;19.050;2023-05-29T03:55:08;16.97;66.95
64937;SHT30;51452;47.698;19.050;2023-05-29T03:57:34;17.06;67.11
64937;SHT30;51452;47.698;19.050;2023-05-29T03:59:59;17.03;67.61
64937;SHT30;51452;47.698;19.050;2023-05-29T04:02:25;17.03;68.69
64937;SHT30;51452;47.698;19.050;2023-05-29T04:04:51;17.04;68.27
64937;SHT30;51452;47.698;19.050;2023-05-29T04:07:18;17.07;68.74
64937;SHT30;51452;47.698;19.050;2023-05-29T04:09:43;17.04;69.54
64937;SHT30;51452;47.698;19.050;2023-05-29T04:12:09;17.08;69.45
64937;SHT30;51452;47.698;19.050;2023-05-29T04:14:34;17.18;68.51
64937;SHT30;51452;47.698;19.050;2023-05-29T04:17:00;17.20;68.25
64937;SHT30;51452;47.698;19.050;2023-05-29T04:19:25;17.27;69.56
64937;SHT30;51452;47.698;19.050;2023-05-29T04:21:51;17.35;69.74
64937;SHT30;51452;47.698;19.050;2023-05-29T04:24:16;17.38;70.36
64937;SHT30;51452;47.698;19.050;2023-05-29T04:26:41;17.42;70.14
64937;SHT30;51452;47.698;19.050;2023-05-29T04:29:11;17.44;68.51
64937;SHT30;51452;47.698;19.050;2023-05-29T04:31:38;17.54;67.33
64937;SHT30;51452;47.698;19.050;2023-05-29T04:34:04;17.56;68.29
64937;SHT30;51452;47.698;19.050;2023-05-29T04:36:32;17.64;68.63
64937;SHT30;51452;47.698;19.050;2023-05-29T04:38:58;17.69;69.16
64937;SHT30;51452;47.698;19.050;2023-05-29T04:41:25;17.76;68.60
64937;SHT30;51452;47.698;19.050;2023-05-29T04:43:55;17.79;67.93
64937;SHT30;51452;47.698;19.050;2023-05-29T04:46:22;17.86;69.01
64937;SHT30;51452;47.698;19.050;2023-05-29T04:48:47;17.92;68.45
64937;SHT30;51452;47.698;19.050;2023-05-29T04:51:13;17.97;68.69
64937;SHT30;51452;47.698;19.050;2023-05-29T04:53:39;17.96;67.43
64937;SHT30;51452;47.698;19.050;2023-05-29T04:56:07;18.05;67.89
64937;SHT30;51452;47.698;19.050;2023-05-29T04:58:33;18.13;68.61
64937;SHT30;51452;47.698;19.050;2023-05-29T05:00:58;18.16;68.24
64937;SHT30;51452;47.698;19.050;2023-05-29T05:03:24;18.16;66.61
64937;SHT30;51452;47.698;19.050;2023-05-29T05:05:50;18.26;66.58
64937;SHT30;51452;47.698;19.050;2023-05-29T05:08:17;18.34;66.69
64937;SHT30;51452;47.698;19.050;2023-05-29T05:10:42;18.32;67.64
64937;SHT30;51452;47.698;19.050;2023-05-29T05:13:07;18.37;67.79
64937;SHT30;51452;47.698;19.050;2023-05-29T05:15:33;18.44;67.05
64937;SHT30;51452;47.698;19.050;2023-05-29T05:17:58;18.63;66.07
64937;SHT30;51452;47.698;19.050;2023-05-29T05:20:24;18.60;66.49
64937;SHT30;51452;47.698;19.050;2023-05-29T05:22:49;18.71;65.90
64937;SHT30;51452;47.698;19.050;2023-05-29T05:25:14;18.87;65.80
64937;SHT30;51452;47.698;19.050;2023-05-29T05:27:40;18.96;66.37
64937;SHT30;51452;47.698;19.050;2023-05-29T05:30:06;19.04;67.41
64937;SHT30;51452;47.698;19.050;2023-05-29T05:32:32;19.08;66.96
64937;SHT30;51452;47.698;19.050;2023-05-29T05:34:57;19.19;66.79
64937;SHT30;51452;47.698;19.050;2023-05-29T05:37:23;19.26;65.93
64937;SHT30;51452;47.698;19.050;2023-05-29T05:39:49;19.26;66.46
64937;SHT30;51452;47.698;19.050;2023-05-29T05:42:15;19.39;66.35
64937;SHT30;51452;47.698;19.050;2023-05-29T05:44:41;19.42;65.83
64937;SHT30;51452;47.698;19.050;2023-05-29T05:47:06;19.53;65.54
64937;SHT30;51452;47.698;19.050;2023-05-29T05:49:32;19.57;63.09
64937;SHT30;51452;47.698;19.050;2023-05-29T05:51:57;19.60;64.02
64937;SHT30;51452;47.698;19.050;2023-05-29T05:54:22;19.70;63.50
64937;SHT30;51452;47.698;19.050;2023-05-29T05:56:48;19.66;63.36
64937;SHT30;51452;47.698;19.050;2023-05-29T05:59:13;19.73;62.80
64937;SHT30;51452;47.698;19.050;2023-05-29T06:01:38;19.83;62.73
64937;SHT30;51452;47.698;19.050;2023-05-29T06:04:06;19.83;62.15
64937;SHT30;51452;47.698;19.050;2023-05-29T06:06:32;19.98;61.84
64937;SHT30;51452;47.698;19.050;2023-05-29T06:08:57;19.98;62.44
64937;SHT30;51452;47.698;19.050;2023-05-29T06:11:24;20.03;63.47
64937;SHT30;51452;47.698;19.050;2023-05-29T06:13:50;20.05;62.81
64937;SHT30;51452;47.698;19.050;2023-05-29T06:16:16;20.18;63.98
64937;SHT30;51452;47.698;19.050;2023-05-29T06:18:42;20.17;64.05
64937;SHT30;51452;47.698;19.050;2023-05-29T06:21:07;20.31;62.18
64937;SHT30;51452;47.698;19.050;2023-05-29T06:23:34;20.28;62.82
64937;SHT30;51452;47.698;19.050;2023-05-29T06:26:01;20.24;62.83
64937;SHT30;51452;47.698;19.050;2023-05-29T06:28:27;20.24;63.84
64937;SHT30;51452;47.698;19.050;2023-05-29T06:30:52;20.41;63.11
64937;SHT30;51452;47.698;19.050;2023-05-29T06:33:17;20.44;62.60
64937;SHT30;51452;47.698;19.050;2023-05-29T06:35:43;20.38;63.40
64937;SHT30;51452;47.698;19.050;2023-05-29T06:38:08;20.41;62.88
64937;SHT30;51452;47.698;19.050;2023-05-29T06:40:33;20.41;62.44
64937;SHT30;51452;47.698;19.050;2023-05-29T06:42:59;20.56;63.64
64937;SHT30;51452;47.698;19.050;2023-05-29T06:45:25;20.62;62.72
64937;SHT30;51452;47.698;19.050;2023-05-29T06:47:51;20.77;62.49
64937;SHT30;51452;47.698;19.050;2023-05-29T06:50:16;20.77;60.51
64937;SHT30;51452;47.698;19.050;2023-05-29T06:52:41;20.93;59.96
64937;SHT30;51452;47.698;19.050;2023-05-29T06:55:07;21.07;59.06
64937;SHT30;51452;47.698;19.050;2023-05-29T06:57:33;21.11;57.54
64937;SHT30;51452;47.698;19.050;2023-05-29T06:59:58;21.23;55.09
64937;SHT30;51452;47.698;19.050;2023-05-29T07:02:23;21.30;54.39
64937;SHT30;51452;47.698;19.050;2023-05-29T07:04:49;21.34;55.42
64937;SHT30;51452;47.698;19.050;2023-05-29T07:07:14;21.46;55.99
64937;SHT30;51452;47.698;19.050;2023-05-29T07:09:40;21.57;55.46
64937;SHT30;51452;47.698;19.050;2023-05-29T07:12:05;21.58;53.51
64937;SHT30;51452;47.698;19.050;2023-05-29T07:14:31;21.69;54.38
64937;SHT30;51452;47.698;19.050;2023-05-29T07:16:56;21.74;53.23
64937;SHT30;51452;47.698;19.050;2023-05-29T07:19:21;21.85;53.01
64937;SHT30;51452;47.698;19.050;2023-05-29T07:21:47;21.89;52.08
64937;SHT30;51452;47.698;19.050;2023-05-29T07:24:13;22.04;52.80
64937;SHT30;51452;47.698;19.050;2023-05-29T07:26:38;22.09;53.16
64937;SHT30;51452;47.698;19.050;2023-05-29T07:29:03;22.15;51.89
64937;SHT30;51452;47.698;19.050;2023-05-29T07:31:29;22.20;51.39
64937;SHT30;51452;47.698;19.050;2023-05-29T07:33:54;22.23;51.35
64937;SHT30;51452;47.698;19.050;2023-05-29T07:36:20;22.37;52.20
64937;SHT30;51452;47.698;19.050;2023-05-29T07:38:46;22.33;52.48
64937;SHT30;51452;47.698;19.050;2023-05-29T07:41:11;22.42;49.93
64937;SHT30;51452;47.698;19.050;2023-05-29T07:43:37;22.42;49.89
64937;SHT30;51452;47.698;19.050;2023-05-29T07:46:03;22.46;49.54
64937;SHT30;51452;47.698;19.050;2023-05-29T07:48:28;22.52;50.19
64937;SHT30;51452;47.698;19.050;2023-05-29T07:50:53;22.57;50.84
64937;SHT30;51452;47.698;19.050;2023-05-29T07:53:19;22.50;51.61
64937;SHT30;51452;47.698;19.050;2023-05-29T07:55:44;22.60;50.18
64937;SHT30;51452;47.698;19.050;2023-05-29T07:58:10;22.67;50.62
64937;SHT30;51452;47.698;19.050;2023-05-29T08:00:36;22.81;50.99
64937;SHT30;51452;47.698;19.050;2023-05-29T08:03:03;22.90;49.47
64937;SHT30;51452;47.698;19.050;2023-05-29T08:05:29;22.93;50.17
64937;SHT30;51452;47.698;19.050;2023-05-29T08:07:54;22.93;49.52
64937;SHT30;51452;47.698;19.050;2023-05-29T08:10:20;22.96;49.79
64937;SHT30;51452;47.698;19.050;2023-05-29T08:12:45;22.96;48.78
64937;SHT30;51452;47.698;19.050;2023-05-29T08:15:12;22.96;48.02
64937;SHT30;51452;47.698;19.050;2023-05-29T08:17:38;22.88;47.71
64937;SHT30;51452;47.698;19.050;2023-05-29T08:20:03;22.80;49.54
64937;SHT30;51452;47.698;19.050;2023-05-29T08:22:32;22.91;49.37
64937;SHT30;51452;47.698;19.050;2023-05-29T08:24:59;23.10;48.31
64937;SHT30;51452;47.698;19.050;2023-05-29T08:27:24;23.22;51.05
64937;SHT30;51452;47.698;19.050;2023-05-29T08:29:50;23.24;49.28
64937;SHT30;51452;47.698;19.050;2023-05-29T08:32:15;23.31;48.65
64937;SHT30;51452;47.698;19.050;2023-05-29T08:34:41;23.24;48.92
64937;SHT30;51452;47.698;19.050;2023-05-29T08:37:07;23.28;49.44
64937;SHT30;51452;47.698;19.050;2023-05-29T08:39:32;23.22;49.11
64937;SHT30;51452;47.698;19.050;2023-05-29T08:44:30;23.18;49.13
64937;SHT30;51452;47.698;19.050;2023-05-29T08:47:01;23.21;50.14
64937;SHT30;51452;47.698;19.050;2023-05-29T08:49:28;23.32;51.18
64937;SHT30;51452;47.698;19.050;2023-05-29T08:52:02;23.39;51.42
64937;SHT30;51452;47.698;19.050;2023-05-29T08:54:31;23.32;46.98
64937;SHT30;51452;47.698;19.050;2023-05-29T08:56:57;23.54;46.55
64937;SHT30;51452;47.698;19.050;2023-05-29T08:59:24;23.56;46.80
64937;SHT30;51452;47.698;19.050;2023-05-29T09:01:50;23.59;47.49
64937;SHT30;51452;47.698;19.050;2023-05-29T09:04:16;23.67;46.73
64937;SHT30;51452;47.698;19.050;2023-05-29T09:06:42;23.61;46.99
64937;SHT30;51452;47.698;19.050;2023-05-29T09:09:08;23.66;48.16
64937;SHT30;51452;47.698;19.050;2023-05-29T09:11:35;23.75;47.17
64937;SHT30;51452;47.698;19.050;2023-05-29T09:14:00;23.82;48.54
64937;SHT30;51452;47.698;19.050;2023-05-29T09:16:27;23.63;48.02
64937;SHT30;51452;47.698;19.050;2023-05-29T09:19:03;23.69;48.26
64937;SHT30;51452;47.698;19.050;2023-05-29T09:21:29;23.75;48.16
64937;SHT30;51452;47.698;19.050;2023-05-29T09:24:03;23.72;50.42
64937;SHT30;51452;47.698;19.050;2023-05-29T09:26:30;23.76;45.42
64937;SHT30;51452;47.698;19.050;2023-05-29T09:28:55;23.73;47.27
64937;SHT30;51452;47.698;19.050;2023-05-29T09:31:21;23.75;47.00
64937;SHT30;51452;47.698;19.050;2023-05-29T09:33:50;23.70;49.07
64937;SHT30;51452;47.698;19.050;2023-05-29T09:36:22;23.82;48.67
64937;SHT30;51452;47.698;19.050;2023-05-29T09:38:48;23.86;47.82
64937;SHT30;51452;47.698;19.050;2023-05-29T09:41:20;23.89;46.71
64937;SHT30;51452;47.698;19.050;2023-05-29T09:43:48;24.03;47.82
64937;SHT30;51452;47.698;19.050;2023-05-29T09:46:15;24.13;48.11
64937;SHT30;51452;47.698;19.050;2023-05-29T09:48:42;24.20;47.69
64937;SHT30;51452;47.698;19.050;2023-05-29T09:51:19;24.13;48.13
64937;SHT30;51452;47.698;19.050;2023-05-29T09:53:46;24.21;47.92
64937;SHT30;51452;47.698;19.050;2023-05-29T09:56:12;24.33;47.11
64937;SHT30;51452;47.698;19.050;2023-05-29T09:58:40;24.50;48.23
64937;SHT30;51452;47.698;19.050;2023-05-29T10:01:11;24.64;49.08
64937;SHT30;51452;47.698;19.050;2023-05-29T10:03:37;24.63;46.28
64937;SHT30;51452;47.698;19.050;2023-05-29T10:06:04;24.63;46.55
64937;SHT30;51452;47.698;19.050;2023-05-29T10:08:32;24.60;49.96
64937;SHT30;51452;47.698;19.050;2023-05-29T10:11:00;24.72;46.73
64937;SHT30;51452;47.698;19.050;2023-05-29T10:13:28;24.71;48.66
64937;SHT30;51452;47.698;19.050;2023-05-29T10:15:57;24.67;45.49
64937;SHT30;51452;47.698;19.050;2023-05-29T10:19:12;24.79;46.72
64937;SHT30;51452;47.698;19.050;2023-05-29T10:21:14;24.76;44.63
64937;SHT30;51452;47.698;19.050;2023-05-29T10:23:43;24.79;45.71
64937;SHT30;51452;47.698;19.050;2023-05-29T10:26:14;24.81;47.79
64937;SHT30;51452;47.698;19.050;2023-05-29T10:28:44;24.82;45.81
64937;SHT30;51452;47.698;19.050;2023-05-29T10:31:19;24.91;46.09
64937;SHT30;51452;47.698;19.050;2023-05-29T10:36:28;24.91;47.69
64937;SHT30;51452;47.698;19.050;2023-05-29T10:38:55;24.88;47.41
64937;SHT30;51452;47.698;19.050;2023-05-29T10:43:53;24.84;48.52
64937;SHT30;51452;47.698;19.050;2023-05-29T10:46:18;24.78;50.57
64937;SHT30;51452;47.698;19.050;2023-05-29T10:48:43;24.79;47.81
64937;SHT30;51452;47.698;19.050;2023-05-29T10:51:25;24.92;48.00
64937;SHT30;51452;47.698;19.050;2023-05-29T10:53:51;25.04;49.05
64937;SHT30;51452;47.698;19.050;2023-05-29T10:56:21;25.09;48.05
64937;SHT30;51452;47.698;19.050;2023-05-29T10:58:54;25.27;48.19
64937;SHT30;51452;47.698;19.050;2023-05-29T11:01:30;25.42;46.72
64937;SHT30;51452;47.698;19.050;2023-05-29T11:06:43;25.67;47.73
64937;SHT30;51452;47.698;19.050;2023-05-29T11:09:34;25.63;45.87
64937;SHT30;51452;47.698;19.050;2023-05-29T11:12:25;25.64;46.67
64937;SHT30;51452;47.698;19.050;2023-05-29T11:15:06;25.70;46.28
64937;SHT30;51452;47.698;19.050;2023-05-29T11:17:42;25.66;47.65
64937;SHT30;51452;47.698;19.050;2023-05-29T11:20:16;25.74;46.82
64937;SHT30;51452;47.698;19.050;2023-05-29T11:25:14;25.93;50.78
64937;SHT30;51452;47.698;19.050;2023-05-29T11:27:41;25.76;46.95
64937;SHT30;51452;47.698;19.050;2023-05-29T11:30:07;25.62;46.36
64937;SHT30;51452;47.698;19.050;2023-05-29T11:32:34;25.49;48.30
64937;SHT30;51452;47.698;19.050;2023-05-29T11:35:06;25.45;48.21
64937;SHT30;51452;47.698;19.050;2023-05-29T11:37:32;25.42;47.78
64937;SHT30;51452;47.698;19.050;2023-05-29T11:39:58;25.26;48.65
64937;SHT30;51452;47.698;19.050;2023-05-29T11:42:23;25.53;49.17
64937;SHT30;51452;47.698;19.050;2023-05-29T11:44:49;25.67;50.29
64937;SHT30;51452;47.698;19.050;2023-05-29T11:47:14;25.70;48.25
64937;SHT30;51452;47.698;19.050;2023-05-29T11:49:40;25.76;48.28
64937;SHT30;51452;47.698;19.050;2023-05-29T11:54:33;25.83;51.23
64937;SHT30;51452;47.698;19.050;2023-05-29T11:57:00;25.91;46.01
64937;SHT30;51452;47.698;19.050;2023-05-29T11:59:28;25.90;46.67
64937;SHT30;51452;47.698;19.050;2023-05-29T12:01:54;25.87;47.73
64937;SHT30;51452;47.698;19.050;2023-05-29T12:04:20;25.80;48.84
64937;SHT30;51452;47.698;19.050;2023-05-29T12:06:45;25.81;48.41
64937;SHT30;51452;47.698;19.050;2023-05-29T12:09:26;25.87;48.22
64937;SHT30;51452;47.698;19.050;2023-05-29T12:11:52;25.97;47.49
64937;SHT30;51452;47.698;19.050;2023-05-29T12:14:17;26.04;48.70
64937;SHT30;51452;47.698;19.050;2023-05-29T12:16:43;26.04;48.02
64937;SHT30;51452;47.698;19.050;2023-05-29T12:19:08;26.01;49.27
64937;SHT30;51452;47.698;19.050;2023-05-29T12:21:34;26.07;47.23
64937;SHT30;51452;47.698;19.050;2023-05-29T12:24:00;26.13;45.48
64937;SHT30;51452;47.698;19.050;2023-05-29T12:26:25;26.13;47.71
64937;SHT30;51452;47.698;19.050;2023-05-29T12:28:51;26.17;45.50
64937;SHT30;51452;47.698;19.050;2023-05-29T12:31:27;26.24;46.82
64937;SHT30;51452;47.698;19.050;2023-05-29T12:33:53;26.25;45.28
64937;SHT30;51452;47.698;19.050;2023-05-29T12:36:18;26.24;46.99
64937;SHT30;51452;47.698;19.050;2023-05-29T12:38:50;26.42;47.95
64937;SHT30;51452;47.698;19.050;2023-05-29T12:41:29;26.45;46.50
64937;SHT30;51452;47.698;19.050;2023-05-29T12:43:56;26.68;46.09
64937;SHT30;51452;47.698;19.050;2023-05-29T12:46:22;26.57;43.80
64937;SHT30;51452;47.698;19.050;2023-05-29T12:48:52;26.62;44.55
64937;SHT30;51452;47.698;19.050;2023-05-29T12:51:22;26.63;45.26
64937;SHT30;51452;47.698;19.050;2023-05-29T12:53:48;26.57;44.47
64937;SHT30;51452;47.698;19.050;2023-05-29T12:56:14;26.69;44.16
64937;SHT30;51452;47.698;19.050;2023-05-29T12:58:39;26.65;45.62
64937;SHT30;51452;47.698;19.050;2023-05-29T13:01:04;26.60;45.71
64937;SHT30;51452;47.698;19.050;2023-05-29T13:03:30;26.28;44.73
64937;SHT30;51452;47.698;19.050;2023-05-29T13:05:56;25.91;46.53
64937;SHT30;51452;47.698;19.050;2023-05-29T13:08:21;25.54;45.98
64937;SHT30;51452;47.698;19.050;2023-05-29T13:10:47;25.35;47.21
64937;SHT30;51452;47.698;19.050;2023-05-29T13:13:12;25.02;45.40
64937;SHT30;51452;47.698;19.050;2023-05-29T13:15:38;24.78;46.22
64937;SHT30;51452;47.698;19.050;2023-05-29T13:18:05;24.67;45.75
64937;SHT30;51452;47.698;19.050;2023-05-29T13:20:31;24.57;45.98
64937;SHT30;51452;47.698;19.050;2023-05-29T13:22:57;24.55;46.43
64937;SHT30;51452;47.698;19.050;2023-05-29T13:25:22;24.38;48.04
64937;SHT30;51452;47.698;19.050;2023-05-29T13:27:49;24.30;47.97
64937;SHT30;51452;47.698;19.050;2023-05-29T13:30:15;24.28;52.38
64937;SHT30;51452;47.698;19.050;2023-05-29T13:32:41;24.31;51.68
64937;SHT30;51452;47.698;19.050;2023-05-29T13:35:07;24.17;53.15
64937;SHT30;51452;47.698;19.050;2023-05-29T13:37:33;24.09;54.50
64937;SHT30;51452;47.698;19.050;2023-05-29T13:39:59;24.05;55.09
64937;SHT30;51452;47.698;19.050;2023-05-29T13:42:24;23.99;55.40
64937;SHT30;51452;47.698;19.050;2023-05-29T13:44:50;24.00;56.43
64937;SHT30;51452;47.698;19.050;2023-05-29T13:47:15;24.03;57.33
64937;SHT30;51452;47.698;19.050;2023-05-29T13:49:42;24.02;58.55
64937;SHT30;51452;47.698;19.050;2023-05-29T13:52:07;23.86;60.29
64937;SHT30;51452;47.698;19.050;2023-05-29T13:54:33;23.99;61.13
64937;SHT30;51452;47.698;19.050;2023-05-29T13:57:02;23.92;57.74
64937;SHT30;51452;47.698;19.050;2023-05-29T13:59:29;23.87;58.84
64937;SHT30;51452;47.698;19.050;2023-05-29T14:01:54;23.90;58.48
64937;SHT30;51452;47.698;19.050;2023-05-29T14:04:19;23.89;57.78
64937;SHT30;51452;47.698;19.050;2023-05-29T14:06:45;23.85;57.31
64937;SHT30;51452;47.698;19.050;2023-05-29T14:09:10;23.83;56.92
64937;SHT30;51452;47.698;19.050;2023-05-29T14:11:36;23.83;56.25
64937;SHT30;51452;47.698;19.050;2023-05-29T14:14:03;23.83;56.59
64937;SHT30;51452;47.698;19.050;2023-05-29T14:16:28;23.87;57.96
64937;SHT30;51452;47.698;19.050;2023-05-29T14:18:53;23.92;61.42
64937;SHT30;51452;47.698;19.050;2023-05-29T14:21:19;23.86;57.42
64937;SHT30;51452;47.698;19.050;2023-05-29T14:23:46;23.90;59.23
64937;SHT30;51452;47.698;19.050;2023-05-29T14:26:11;23.93;59.05
64937;SHT30;51452;47.698;19.050;2023-05-29T14:28:37;23.93;57.85
64937;SHT30;51452;47.698;19.050;2023-05-29T14:31:04;23.82;60.29
64937;SHT30;51452;47.698;19.050;2023-05-29T14:33:30;23.87;60.95
64937;SHT30;51452;47.698;19.050;2023-05-29T14:35:55;23.86;57.88
64937;SHT30;51452;47.698;19.050;2023-05-29T14:38:21;23.83;59.60
64937;SHT30;51452;47.698;19.050;2023-05-29T14:40:46;23.80;60.01
64937;SHT30;51452;47.698;19.050;2023-05-29T14:43:12;23.86;61.51
64937;SHT30;51452;47.698;19.050;2023-05-29T14:45:37;23.86;59.93
64937;SHT30;51452;47.698;19.050;2023-05-29T14:48:02;23.79;60.83
64937;SHT30;51452;47.698;19.050;2023-05-29T14:50:28;23.82;61.45
64937;SHT30;51452;47.698;19.050;2023-05-29T14:52:53;23.73;60.93
64937;SHT30;51452;47.698;19.050;2023-05-29T14:55:19;23.72;61.90
64937;SHT30;51452;47.698;19.050;2023-05-29T14:57:45;23.72;61.47
64937;SHT30;51452;47.698;19.050;2023-05-29T15:00:10;23.69;62.48
64937;SHT30;51452;47.698;19.050;2023-05-29T15:02:36;23.75;63.25
64937;SHT30;51452;47.698;19.050;2023-05-29T15:05:04;23.72;63.05
64937;SHT30;51452;47.698;19.050;2023-05-29T15:07:30;23.67;62.72
64937;SHT30;51452;47.698;19.050;2023-05-29T15:09:56;23.67;63.41
64937;SHT30;51452;47.698;19.050;2023-05-29T15:12:21;23.66;62.51
64937;SHT30;51452;47.698;19.050;2023-05-29T15:14:47;23.61;62.64
64937;SHT30;51452;47.698;19.050;2023-05-29T15:17:12;23.58;62.41
64937;SHT30;51452;47.698;19.050;2023-05-29T15:19:37;23.63;60.39
64937;SHT30;51452;47.698;19.050;2023-05-29T15:22:03;23.58;61.21
64937;SHT30;51452;47.698;19.050;2023-05-29T15:24:28;23.58;60.66
64937;SHT30;51452;47.698;19.050;2023-05-29T15:26:54;23.55;59.48
64937;SHT30;51452;47.698;19.050;2023-05-29T15:29:19;23.52;58.98